Greendale, IN

9:39 PM EST on February 07, 2016 (GMT -0500)
Beckett Landing | | Change Station
CLOSE
Current Station
Personal Weather Station
Location: Greendale, IN
Elevation: 512 ft
Nearby Weather Stations

Elev 512 ft 39.12 °N, 84.87 °W | Updated 11 minutes ago

Overcast
Overcast
46.6 °F
Feels Like 47 °F
N
0.0
Wind Variable Wind from NNE

Today
High -- | Low -- °F
--% Chance of Precip.
Yesterday
High -- | Low -- °F
Precip. -- in
Pressure 29.84 in
Visibility 10.0 miles
Clouds Few 7000 ft
Mostly Cloudy 9000 ft
Windchill 47 °F
Dew Point 26 °F
Humidity 45%
Rainfall 0.00 in
Snow Depth Not available.
7:40 AM 6:06 PM
Waning Crescent, 0% visible
METAR KCVG 080152Z 19007KT 10SM FEW070 BKN090 08/M06 A2984 RMK AO2 SLP105 T00781061
Pressure 29.84 in
Visibility 10.0 miles
Clouds Few 7000 ft
Mostly Cloudy 9000 ft
Windchill 47 °F
Dew Point 26 °F
Humidity 45%
Rainfall 0.00 in
Snow Depth Not available.
7:40 AM 6:06 PM
Waning Crescent, 0% visible
METAR KCVG 080152Z 19007KT 10SM FEW070 BKN090 08/M06 A2984 RMK AO2 SLP105 T00781061

10-Day Weather Forecast

Almanac

Astronomy

Feb. 07, 2016 Rise Set
Actual Time
Civil Twilight
Nautical Twilight
Astronomical Twilight
Moon
Length of Visible Light
Length of Day
Tomorrow will be .
, % of the Moon is Illuminated

Today's Extremes

State Highs State Lows

Community

WunderPhotos

Upload Photos

1,891,373 photos uploaded!

WunderBlog® & News

Nearby

Air Quality

  Air Quality AQ Index Pollutant
Not available.

Snow Depth

Station Depth Elevation

Earthquake Activity

City Distance Mag. Time & Date
Minimum magnitude displayed is 2.5.

Coastal Water Temperatures

Place Temperature

Stations

Nearby Weather Stations

Station Location Temp. Windchill Dew Point Humidity Wind Precip. Elev Updated Type
                   

Watches & Warnings

There are currently no watches in effect.